createdAt,value
2023-08-14T00:00:44.276Z,16.81
2023-08-14T00:03:47.572Z,16.74
2023-08-14T00:06:50.497Z,16.73
2023-08-14T00:09:53.682Z,16.67
2023-08-14T00:12:56.301Z,16.58
2023-08-14T00:15:59.326Z,16.55
2023-08-14T00:19:02.115Z,16.52
2023-08-14T00:22:05.213Z,16.47
2023-08-14T00:25:08.294Z,16.43
2023-08-14T00:28:11.410Z,16.40
2023-08-14T00:31:14.099Z,16.37
2023-08-14T00:34:17.085Z,16.31
2023-08-14T00:37:23.040Z,16.26
2023-08-14T00:40:26.073Z,16.27
2023-08-14T00:43:28.819Z,16.28
2023-08-14T00:46:33.021Z,16.24
2023-08-14T00:49:35.990Z,16.24
2023-08-14T00:52:44.861Z,16.09
2023-08-14T00:55:47.672Z,16.10
2023-08-14T00:58:51.345Z,15.90
2023-08-14T01:01:54.230Z,15.99
2023-08-14T01:04:57.640Z,16.08
2023-08-14T01:08:00.372Z,15.97
2023-08-14T01:11:29.669Z,15.47
2023-08-14T01:14:34.402Z,15.15
2023-08-14T01:17:39.590Z,15.23
2023-08-14T01:20:44.119Z,15.35
2023-08-14T01:24:05.690Z,15.66
2023-08-14T01:27:09.971Z,15.67
2023-08-14T01:30:13.048Z,15.55
2023-08-14T01:33:15.981Z,15.71
2023-08-14T01:36:40.323Z,15.73
2023-08-14T01:39:49.527Z,15.78
2023-08-14T01:43:00.812Z,15.75
2023-08-14T01:46:06.394Z,15.71
2023-08-14T01:49:11.650Z,15.56
2023-08-14T01:52:14.952Z,15.36
2023-08-14T01:55:17.930Z,15.25
2023-08-14T01:58:20.578Z,15.15
2023-08-14T02:01:23.706Z,15.30
2023-08-14T02:04:27.137Z,15.54
2023-08-14T02:07:30.331Z,15.44
2023-08-14T02:10:33.361Z,15.55
2023-08-14T02:13:36.675Z,15.29
2023-08-14T02:16:39.700Z,15.40
2023-08-14T02:19:42.306Z,15.39
2023-08-14T02:22:45.318Z,15.39
2023-08-14T02:25:48.026Z,15.06
2023-08-14T02:28:51.075Z,14.98
2023-08-14T02:31:53.856Z,15.18
2023-08-14T02:34:59.580Z,15.09
2023-08-14T02:38:05.179Z,15.17
2023-08-14T02:41:08.171Z,15.40
2023-08-14T02:44:10.866Z,15.51
2023-08-14T02:47:14.303Z,15.49
2023-08-14T02:50:17.067Z,15.43
2023-08-14T02:53:19.986Z,14.97
2023-08-14T02:56:22.633Z,15.29
2023-08-14T02:59:25.710Z,15.42
2023-08-14T03:02:28.481Z,15.44
2023-08-14T03:05:34.232Z,15.41
2023-08-14T03:08:36.882Z,15.44
2023-08-14T03:11:40.117Z,15.37
2023-08-14T03:14:42.896Z,15.40
2023-08-14T03:17:46.924Z,15.31
2023-08-14T03:20:50.248Z,15.24
2023-08-14T03:23:54.025Z,15.20
2023-08-14T03:26:56.640Z,15.17
2023-08-14T03:29:59.731Z,15.15
2023-08-14T03:33:03.163Z,15.17
2023-08-14T03:36:06.704Z,15.10
2023-08-14T03:39:09.420Z,15.10
2023-08-14T03:42:12.464Z,15.12
2023-08-14T03:45:15.091Z,15.08
2023-08-14T03:48:17.978Z,15.05
2023-08-14T03:51:20.810Z,14.95
2023-08-14T03:54:23.749Z,15.09
2023-08-14T03:57:26.421Z,15.20
2023-08-14T04:00:29.400Z,15.11
2023-08-14T04:03:32.425Z,15.05
2023-08-14T04:06:36.323Z,15.07
2023-08-14T04:09:39.376Z,15.05
2023-08-14T04:12:41.999Z,15.28
2023-08-14T04:15:45.005Z,15.23
2023-08-14T04:18:53.700Z,15.22
2023-08-14T04:21:56.729Z,15.27
2023-08-14T04:24:59.302Z,15.11
2023-08-14T04:28:02.348Z,14.74
2023-08-14T04:31:05.000Z,14.61
2023-08-14T04:34:10.545Z,14.79
2023-08-14T04:37:13.909Z,15.18
2023-08-14T04:40:17.043Z,15.24
2023-08-14T04:43:19.774Z,15.39
2023-08-14T04:46:53.362Z,15.58
2023-08-14T04:50:00.819Z,15.79
2023-08-14T04:53:06.545Z,16.01
2023-08-14T04:56:10.117Z,16.12
2023-08-14T04:59:13.043Z,16.21
2023-08-14T05:02:16.690Z,16.39
2023-08-14T05:05:21.088Z,16.53
2023-08-14T05:08:24.712Z,16.68
2023-08-14T05:11:27.673Z,16.83
2023-08-14T05:14:30.565Z,17.02
2023-08-14T05:17:33.592Z,17.11
2023-08-14T05:20:37.352Z,17.31
2023-08-14T05:23:40.284Z,17.53
2023-08-14T05:26:43.164Z,17.76
2023-08-14T05:29:48.318Z,17.92
2023-08-14T05:32:51.030Z,18.25
2023-08-14T05:35:54.140Z,18.60
2023-08-14T05:38:56.832Z,18.91
2023-08-14T05:41:59.798Z,19.24
2023-08-14T05:45:02.573Z,19.52
2023-08-14T05:48:07.558Z,19.84
2023-08-14T05:51:10.242Z,20.02
2023-08-14T05:54:13.278Z,20.29
2023-08-14T05:57:15.936Z,20.58
2023-08-14T06:00:20.571Z,20.68
2023-08-14T06:03:37.661Z,20.85
2023-08-14T06:06:46.091Z,21.13
2023-08-14T06:09:49.023Z,21.19
2023-08-14T06:12:52.664Z,21.58
2023-08-14T06:15:55.655Z,21.77
2023-08-14T06:18:58.324Z,21.72
2023-08-14T06:22:01.408Z,21.96
2023-08-14T06:25:04.317Z,22.14
2023-08-14T06:28:07.303Z,22.40
2023-08-14T06:31:10.514Z,22.44
2023-08-14T06:34:13.572Z,22.60
2023-08-14T06:37:16.760Z,22.68
2023-08-14T06:40:19.746Z,22.67
2023-08-14T06:43:22.385Z,22.87
2023-08-14T06:46:25.486Z,22.94
2023-08-14T06:49:28.931Z,23.02
2023-08-14T06:52:31.895Z,23.04
2023-08-14T06:55:34.562Z,23.25
2023-08-14T06:58:37.581Z,23.35
2023-08-14T07:01:40.248Z,23.54
2023-08-14T07:04:43.417Z,23.65
2023-08-14T07:07:46.073Z,23.81
2023-08-14T07:10:49.328Z,23.85
2023-08-14T07:13:51.970Z,24.01
2023-08-14T07:16:54.952Z,24.14
2023-08-14T07:19:57.669Z,24.29
2023-08-14T07:23:00.799Z,24.44
2023-08-14T07:26:12.600Z,24.49
2023-08-14T07:29:19.760Z,24.61
2023-08-14T07:32:22.724Z,24.78
2023-08-14T07:35:25.636Z,24.78
2023-08-14T07:38:28.526Z,24.84
2023-08-14T07:41:31.518Z,24.99
2023-08-14T07:44:34.096Z,25.15
2023-08-14T07:47:38.012Z,25.31
2023-08-14T07:50:40.759Z,25.47
2023-08-14T07:53:43.711Z,25.58
2023-08-14T07:56:48.106Z,25.72
2023-08-14T07:59:52.558Z,25.84
2023-08-14T08:02:55.535Z,25.94
2023-08-14T08:05:58.623Z,26.02
2023-08-14T08:09:01.256Z,26.12
2023-08-14T08:12:04.545Z,26.32
2023-08-14T08:15:07.509Z,26.49
2023-08-14T08:18:10.494Z,26.69
2023-08-14T08:21:13.402Z,26.79
2023-08-14T08:24:16.750Z,26.91
2023-08-14T08:27:19.314Z,27.17
2023-08-14T08:30:22.209Z,27.25
2023-08-14T08:33:27.851Z,27.39
2023-08-14T08:36:31.035Z,27.48
2023-08-14T08:39:33.658Z,27.56
2023-08-14T08:42:37.639Z,27.73
2023-08-14T08:45:42.445Z,27.79
2023-08-14T08:48:47.735Z,27.81
2023-08-14T08:51:52.870Z,27.96
2023-08-14T08:54:56.411Z,28.17
2023-08-14T08:57:59.902Z,28.23
2023-08-14T09:01:04.145Z,28.38
2023-08-14T09:04:07.101Z,28.50
2023-08-14T09:07:10.218Z,28.53
2023-08-14T09:10:13.535Z,28.79
2023-08-14T09:13:17.471Z,28.95
2023-08-14T09:16:28.572Z,29.03
2023-08-14T09:19:31.486Z,29.13
2023-08-14T09:22:34.074Z,29.18
2023-08-14T09:25:37.442Z,29.18
2023-08-14T09:28:40.406Z,29.06
2023-08-14T09:31:45.667Z,29.33
2023-08-14T09:34:48.735Z,29.14
2023-08-14T09:37:51.856Z,29.31
2023-08-14T09:40:58.557Z,29.60
2023-08-14T09:44:02.248Z,29.65
2023-08-14T09:47:06.422Z,29.67
2023-08-14T09:50:10.425Z,29.81
2023-08-14T09:53:13.078Z,29.98
2023-08-14T09:56:17.905Z,29.87
2023-08-14T09:59:21.174Z,29.93
2023-08-14T10:02:25.397Z,29.72
2023-08-14T10:05:28.998Z,29.87
2023-08-14T10:08:35.440Z,30.20
2023-08-14T10:11:38.896Z,30.28
2023-08-14T10:14:46.607Z,30.22
2023-08-14T10:18:02.482Z,30.40
2023-08-14T10:21:09.026Z,30.60
2023-08-14T10:24:13.299Z,30.66
2023-08-14T10:27:16.294Z,30.49
2023-08-14T10:30:26.860Z,30.72
2023-08-14T10:33:31.097Z,30.73
2023-08-14T10:36:34.170Z,31.03
2023-08-14T10:39:37.246Z,30.76
2023-08-14T10:42:44.569Z,30.90
2023-08-14T10:45:47.242Z,30.49
2023-08-14T10:48:50.866Z,30.85
2023-08-14T10:52:02.917Z,30.55
2023-08-14T10:55:16.654Z,30.92
2023-08-14T10:58:36.542Z,31.06
2023-08-14T11:01:39.648Z,31.26
2023-08-14T11:05:14.015Z,31.26
2023-08-14T11:08:17.632Z,31.50
2023-08-14T11:11:21.148Z,31.42
2023-08-14T11:14:24.520Z,31.08
2023-08-14T11:17:28.689Z,31.03
2023-08-14T11:20:31.978Z,31.26
2023-08-14T11:23:34.631Z,30.71
2023-08-14T11:26:37.553Z,31.05
2023-08-14T11:32:46.634Z,31.09
2023-08-14T11:35:49.448Z,31.18
2023-08-14T11:38:52.948Z,31.16
2023-08-14T11:41:55.650Z,30.48
2023-08-14T11:44:58.662Z,31.05
2023-08-14T11:48:02.306Z,31.47
2023-08-14T11:51:06.055Z,31.84
2023-08-14T11:54:10.726Z,31.85
2023-08-14T11:57:14.846Z,31.74
2023-08-14T12:00:23.774Z,31.92
2023-08-14T12:03:32.327Z,31.67
2023-08-14T12:06:35.513Z,31.54
2023-08-14T12:09:39.362Z,31.53
2023-08-14T12:12:51.470Z,31.77
2023-08-14T12:16:11.973Z,31.69
2023-08-14T12:19:15.087Z,31.59
2023-08-14T12:22:22.090Z,31.77
2023-08-14T12:25:25.353Z,32.14
2023-08-14T12:28:29.148Z,32.40
2023-08-14T12:31:31.837Z,32.15
2023-08-14T12:34:34.861Z,32.13
2023-08-14T12:37:37.754Z,32.44
2023-08-14T12:40:40.907Z,32.21
2023-08-14T12:43:43.804Z,32.34
2023-08-14T12:46:46.936Z,32.35
2023-08-14T12:49:49.560Z,32.36
2023-08-14T12:52:52.446Z,32.11
2023-08-14T12:59:05.632Z,31.94
2023-08-14T13:02:08.284Z,31.96
2023-08-14T13:05:11.296Z,32.11
2023-08-14T13:08:14.004Z,32.10
2023-08-14T13:11:19.410Z,32.55
2023-08-14T13:14:22.147Z,32.51
2023-08-14T13:17:25.166Z,32.64
2023-08-14T13:20:28.207Z,33.03
2023-08-14T13:23:31.229Z,32.80
2023-08-14T13:26:35.916Z,32.51
2023-08-14T13:29:41.480Z,32.42
2023-08-14T13:32:44.680Z,32.49
2023-08-14T13:35:47.840Z,32.44
2023-08-14T13:38:50.457Z,32.80
2023-08-14T13:41:54.361Z,33.05
2023-08-14T13:45:04.400Z,32.99
2023-08-14T13:48:15.648Z,33.17
2023-08-14T13:51:18.411Z,33.25
2023-08-14T13:54:21.342Z,33.34
2023-08-14T13:57:24.062Z,33.47
2023-08-14T14:00:30.149Z,33.27
2023-08-14T14:03:34.210Z,33.26
2023-08-14T14:06:36.804Z,32.70
2023-08-14T14:09:41.490Z,33.16
2023-08-14T14:12:59.570Z,33.48
2023-08-14T14:16:04.766Z,33.41
2023-08-14T14:19:07.479Z,33.35
2023-08-14T14:22:10.434Z,32.73
2023-08-14T14:25:14.258Z,32.79
2023-08-14T14:28:17.309Z,33.11
2023-08-14T14:31:19.979Z,33.34
2023-08-14T14:34:22.966Z,33.10
2023-08-14T14:37:25.621Z,33.35
2023-08-14T14:40:29.797Z,33.40
2023-08-14T14:43:34.705Z,33.34
2023-08-14T14:46:38.748Z,33.25
2023-08-14T14:49:41.477Z,33.41
2023-08-14T14:52:44.450Z,33.69
2023-08-14T14:55:47.069Z,33.09
2023-08-14T14:58:50.015Z,33.44
2023-08-14T15:01:52.750Z,33.06
2023-08-14T15:04:55.699Z,33.09
2023-08-14T15:07:58.797Z,32.74
2023-08-14T15:11:01.801Z,33.21
2023-08-14T15:14:04.895Z,33.10
2023-08-14T15:17:07.756Z,33.04
2023-08-14T15:20:11.392Z,33.04
2023-08-14T15:23:14.710Z,33.24
2023-08-14T15:26:17.286Z,33.17
2023-08-14T15:29:20.347Z,32.90
2023-08-14T15:32:23.015Z,33.19
2023-08-14T15:35:25.987Z,33.39
2023-08-14T15:38:28.623Z,33.39
2023-08-14T15:41:31.641Z,33.18
2023-08-14T15:44:34.267Z,33.15
2023-08-14T15:47:37.350Z,32.74
2023-08-14T15:50:40.041Z,32.73
2023-08-14T15:53:43.143Z,32.85
2023-08-14T15:56:45.744Z,32.97
2023-08-14T15:59:49.082Z,32.81
2023-08-14T16:02:51.716Z,32.98
2023-08-14T16:05:56.215Z,33.11
2023-08-14T16:08:58.801Z,33.14
2023-08-14T16:12:01.711Z,33.16
2023-08-14T16:15:04.835Z,32.73
2023-08-14T16:18:07.824Z,33.05
2023-08-14T16:21:10.671Z,32.87
2023-08-14T16:24:13.766Z,32.54
2023-08-14T16:27:16.550Z,32.66
2023-08-14T16:30:19.464Z,32.80
2023-08-14T16:33:22.209Z,32.63
2023-08-14T16:36:25.222Z,32.67
2023-08-14T16:39:27.985Z,32.37
2023-08-14T16:42:30.902Z,31.87
2023-08-14T16:45:33.489Z,31.55
2023-08-14T16:48:36.390Z,31.14
2023-08-14T16:51:39.118Z,30.88
2023-08-14T16:54:43.214Z,30.76
2023-08-14T16:57:46.003Z,30.53
2023-08-14T17:00:49.829Z,30.16
2023-08-14T17:03:52.555Z,29.78
2023-08-14T17:06:55.636Z,29.36
2023-08-14T17:09:59.093Z,29.11
2023-08-14T17:13:02.212Z,28.91
2023-08-14T17:16:05.540Z,28.66
2023-08-14T17:19:08.580Z,28.42
2023-08-14T17:22:11.439Z,28.19
2023-08-14T17:25:14.459Z,27.93
2023-08-14T17:28:17.105Z,27.86
2023-08-14T17:31:20.144Z,27.75
2023-08-14T17:34:23.052Z,27.64
2023-08-14T17:37:26.059Z,27.38
2023-08-14T17:40:29.149Z,27.32
2023-08-14T17:43:32.094Z,27.23
2023-08-14T17:46:34.767Z,26.99
2023-08-14T17:49:38.157Z,26.89
2023-08-14T17:52:40.790Z,26.84
2023-08-14T17:55:43.771Z,26.75
2023-08-14T17:58:46.832Z,26.60
2023-08-14T18:01:49.858Z,26.45
2023-08-14T18:04:52.862Z,26.29
2023-08-14T18:07:55.476Z,26.08
2023-08-14T18:11:02.672Z,25.98
2023-08-14T18:14:05.380Z,25.93
2023-08-14T18:17:08.356Z,25.83
2023-08-14T18:20:11.892Z,25.72
2023-08-14T18:23:14.770Z,25.58
2023-08-14T18:26:17.436Z,25.46
2023-08-14T18:29:20.437Z,25.27
2023-08-14T18:32:23.060Z,25.33
2023-08-14T18:35:26.086Z,25.20
2023-08-14T18:38:28.733Z,25.11
2023-08-14T18:41:31.655Z,25.02
2023-08-14T18:44:34.388Z,24.93
2023-08-14T18:47:37.420Z,24.87
2023-08-14T18:50:40.078Z,24.75
2023-08-14T18:53:43.604Z,24.60
2023-08-14T18:56:46.165Z,24.49
2023-08-14T18:59:49.111Z,24.42
2023-08-14T19:02:52.669Z,24.42
2023-08-14T19:06:00.563Z,24.39
2023-08-14T19:09:03.343Z,24.24
2023-08-14T19:12:08.465Z,24.12
2023-08-14T19:15:11.234Z,24.05
2023-08-14T19:18:14.397Z,24.02
2023-08-14T19:21:17.036Z,23.96
2023-08-14T19:24:19.946Z,23.88
2023-08-14T19:27:22.578Z,23.78
2023-08-14T19:30:25.462Z,23.70
2023-08-14T19:33:28.024Z,23.60
2023-08-14T19:36:31.535Z,23.49
2023-08-14T19:39:34.334Z,23.45
2023-08-14T19:42:38.442Z,23.38
2023-08-14T19:45:41.687Z,23.23
2023-08-14T19:48:45.565Z,23.22
2023-08-14T19:51:48.478Z,23.17
2023-08-14T19:54:51.687Z,23.10
2023-08-14T19:57:54.272Z,23.07
2023-08-14T20:01:00.979Z,22.96
2023-08-14T20:04:05.361Z,22.94
2023-08-14T20:07:08.059Z,22.92
2023-08-14T20:10:11.081Z,22.84
2023-08-14T20:13:14.711Z,22.84
2023-08-14T20:16:20.701Z,22.92
2023-08-14T20:19:25.540Z,22.77
2023-08-14T20:22:28.562Z,22.72
2023-08-14T20:25:31.331Z,22.65
2023-08-14T20:28:36.964Z,22.52
2023-08-14T20:31:39.535Z,22.45
2023-08-14T20:34:42.822Z,22.32
2023-08-14T20:37:45.603Z,22.28
2023-08-14T20:40:53.469Z,22.28
2023-08-14T20:43:56.073Z,22.20
2023-08-14T20:46:58.977Z,22.14
2023-08-14T20:50:01.644Z,22.07
2023-08-14T20:53:05.009Z,22.02
2023-08-14T20:56:07.911Z,21.96
2023-08-14T20:59:10.848Z,21.99
2023-08-14T21:02:13.558Z,21.93
2023-08-14T21:05:16.561Z,21.83
2023-08-14T21:08:19.198Z,21.83
2023-08-14T21:11:22.070Z,21.83
2023-08-14T21:14:24.795Z,21.76
2023-08-14T21:17:27.866Z,21.65
2023-08-14T21:20:30.505Z,21.67
2023-08-14T21:23:33.511Z,21.58
2023-08-14T21:26:37.494Z,21.47
2023-08-14T21:29:40.465Z,21.43
2023-08-14T21:32:43.277Z,21.46
2023-08-14T21:35:47.320Z,21.45
2023-08-14T21:38:49.924Z,21.32
2023-08-14T21:41:52.802Z,21.33
2023-08-14T21:44:55.464Z,21.29
2023-08-14T21:47:58.456Z,21.14
2023-08-14T21:51:01.172Z,21.07
2023-08-14T21:54:04.551Z,21.02
2023-08-14T21:57:07.221Z,20.99
2023-08-14T22:00:10.806Z,20.99
2023-08-14T22:03:13.240Z,20.76
2023-08-14T22:06:16.189Z,20.59
2023-08-14T22:09:18.805Z,20.65
2023-08-14T22:12:21.831Z,20.47
2023-08-14T22:15:29.904Z,20.46
2023-08-14T22:18:39.398Z,20.62
2023-08-14T22:21:42.209Z,20.39
2023-08-14T22:24:45.103Z,20.27
2023-08-14T22:27:47.698Z,20.27
2023-08-14T22:30:50.546Z,20.24
2023-08-14T22:33:53.160Z,20.57
2023-08-14T22:36:56.079Z,20.58
2023-08-14T22:39:58.783Z,20.38
2023-08-14T22:43:02.050Z,20.31
2023-08-14T22:46:04.619Z,20.44
2023-08-14T22:49:07.482Z,20.38
2023-08-14T22:52:10.105Z,20.35
2023-08-14T22:55:13.084Z,20.29
2023-08-14T22:58:15.692Z,20.31
2023-08-14T23:01:18.635Z,20.28
2023-08-14T23:04:21.628Z,20.26
2023-08-14T23:07:24.556Z,20.20
2023-08-14T23:10:27.174Z,20.34
2023-08-14T23:13:30.095Z,20.30
2023-08-14T23:16:32.788Z,20.30
2023-08-14T23:19:35.684Z,20.22
2023-08-14T23:22:38.396Z,20.13
2023-08-14T23:25:41.326Z,20.13
2023-08-14T23:28:44.025Z,20.11
2023-08-14T23:31:46.962Z,19.99
2023-08-14T23:34:49.532Z,20.02
2023-08-14T23:37:53.205Z,19.99
2023-08-14T23:40:55.857Z,20.02
2023-08-14T23:43:58.767Z,20.00
2023-08-14T23:47:03.541Z,19.87
2023-08-14T23:50:07.113Z,19.78
2023-08-14T23:53:09.744Z,19.78
2023-08-14T23:56:12.700Z,19.78
2023-08-14T23:59:15.361Z,19.66
